Virovitica HR Speed Test Log

Averages  Max Speed    
1 to 25 of 395** for City Virovitica HR
Time
  
  Speed   Provider Size    User ConnectID   TestID  
12/11/19 1:58:10 pm 42.01 Mbps 5.25 MB/sPro Ping Doo 22.6 MB161960346462 _kOJqiV9q 
12/11/19 8:21:57 am 119.35 Mbps 14.92 MB/sPro Ping Doo 200 MB16196036285 zHJiQzHwC 
12/10/19 4:17:23 pm 20.46 Mbps 2.56 MB/sPro Ping Doo 200 MB161960392406 S86Y9vKU8 
12/5/19 9:32:30 am 5 Mbps 625 kB/sPro Ping Doo 7.5 MB1619603913270 hAaiVbrKn 
12/4/19 2:03:30 pm 35.35 Mbps 4.42 MB/sPro Ping Doo 69.4 MB1619603633297 -X89gAJj4 
12/4/19 2:03:07 pm 35.04 Mbps 4.38 MB/sPro Ping Doo 69.4 MB1619603633297 YRfc--ATG 
12/4/19 2:02:29 pm 38.48 Mbps 4.81 MB/sPro Ping Doo 69.4 MB1619603633297 EcKw5cE03 
11/30/19 4:58:08 pm 15 kbps 2 kB/sPro Ping Doo 96 kB1619603361669 IDtJ-c9bX 
11/30/19 4:32:18 pm 110 kbps 14 kB/sPro Ping Doo 96 kB1619603363411 XTx187Wc0 
11/30/19 4:31:46 pm 97 kbps 12 kB/sPro Ping Doo 96 kB1619603363411 aQ_7w1ZQ2 
11/27/19 4:21:00 pm 24.45 Mbps 3.06 MB/sPro Ping Doo 22.2 MB170003040653 hT6rPYUDL 
11/27/19 4:20:42 pm 23.13 Mbps 2.89 MB/sPro Ping Doo 22.2 MB170003040653 brjPUw5oh 
11/27/19 4:20:17 pm 15.46 Mbps 1.93 MB/sPro Ping Doo 22.2 MB170003040653 IsDfOTdJi 
11/27/19 4:19:53 pm 17.52 Mbps 2.19 MB/sPro Ping Doo 22.2 MB170003040653 QV41R88lo 
11/27/19 4:19:39 pm 23.18 Mbps 2.9 MB/sPro Ping Doo 22.2 MB170003040653 anpPlik~W 
11/27/19 4:19:12 pm 25.36 Mbps 3.17 MB/sPro Ping Doo 22.2 MB170003040653 RW7jQYvR8 
11/27/19 4:18:59 pm 26.06 Mbps 3.26 MB/sPro Ping Doo 22.2 MB170003040653 YJnrzrkqi 
11/27/19 4:18:45 pm 21.02 Mbps 2.63 MB/sPro Ping Doo 22.2 MB170003040653 wZlO9CLqc 
11/27/19 4:18:34 pm 16.81 Mbps 2.1 MB/sPro Ping Doo 22.2 MB170003040653 udTRQgeG0 
11/27/19 4:18:18 pm 22.2 Mbps 2.78 MB/sPro Ping Doo 22.2 MB170003040653 aDTVlkMKj 
11/27/19 4:18:00 pm 34.17 Mbps 4.27 MB/sPro Ping Doo 22.2 MB170003040653 nBZdb3atC 
11/27/19 4:17:29 pm 28.63 Mbps 3.58 MB/sPro Ping Doo 22.2 MB170003040653 JAyoZugvU 
11/27/19 4:16:59 pm 22.37 Mbps 2.8 MB/sPro Ping Doo 22.2 MB170003040653 OCrZtQ83k 
11/27/19 4:16:33 pm 14.95 Mbps 1.87 MB/sPro Ping Doo 22.2 MB170003040653 B8rwkDcpG 
11/27/19 4:16:13 pm 15.55 Mbps 1.94 MB/sPro Ping Doo 22.2 MB170003040653 fsSe42CJw 
  
** Partial Results: The most recent results have been displayed. Results over 50 Mbps are highlighted.
Calculated from graphed results above not entire query.
Displaying Internet Speed Test results for City Virovitica HR

Minimum

Min 0.02 Mbps : 42.01 Mbps

Average

Avg 24.37 Mbps : 42.01 Mbps

Maximum

Max 119.35 Mbps : 42.01 Mbps

Minimum

Min: 0.02 Mbps : 42.01 Mbps |

Average

Avg: 24.37 Mbps : 42.01 Mbps |

Maximum

Max: 119.35 Mbps : 42.01 Mbps